Time;durP1;ratioP1;P1;durP2;ratioP2;P2;SDS_P1;SDS_P2;PMS_P1;PMS_P2;Temp;Humidity;BMP_temperature;BMP_pressure;BME280_temperature;BME280_humidity;BME280_pressure;Samples;Min_cycle;Max_cycle;Signal;HPM_P1;HPM_P2
2021/01/10 00:01:05;;;;;;;42.85;22.33;;;;;;;3.13;100.00;101680.78;5043097;28;20028;-74
2021/01/10 00:03:51;;;;;;;42.20;22.58;;;;;;;2.52;100.00;101690.16;5057230;28;20450;-74
2021/01/10 00:06:36;;;;;;;38.90;20.92;;;;;;;2.36;100.00;101701.75;5042714;28;20511;-73
2021/01/10 00:09:22;;;;;;;43.70;23.52;;;;;;;2.62;100.00;101699.97;5057744;28;20025;-74
2021/01/10 00:12:08;;;;;;;43.40;23.08;;;;;;;2.73;100.00;101707.22;5058213;28;20021;-73
2021/01/10 00:14:54;;;;;;;39.63;21.80;;;;;;;2.70;100.00;101694.19;5057409;28;20052;-74
2021/01/10 00:17:43;;;;;;;45.00;23.42;;;;;;;2.86;100.00;101696.38;5057346;28;20039;-74
2021/01/10 00:20:29;;;;;;;42.30;22.70;;;;;;;2.77;100.00;101695.25;5056622;28;20021;-74
2021/01/10 00:23:15;;;;;;;42.13;23.45;;;;;;;2.79;100.00;101706.53;5056754;28;20497;-73
2021/01/10 00:26:01;;;;;;;38.83;20.33;;;;;;;3.12;100.00;101713.56;5056451;28;20528;-74
2021/01/10 00:28:46;;;;;;;41.20;22.88;;;;;;;3.20;100.00;101729.28;5057056;28;20037;-74
2021/01/10 00:31:34;;;;;;;41.88;22.95;;;;;;;2.93;100.00;101741.47;5055182;28;20020;-74
2021/01/10 00:34:20;;;;;;;41.47;23.42;;;;;;;2.48;100.00;101725.41;5056872;28;20057;-74
2021/01/10 00:37:17;;;;;;;42.22;22.75;;;;;;;2.49;100.00;101734.91;5057428;28;20021;-74
2021/01/10 00:40:03;;;;;;;37.47;21.08;;;;;;;2.29;100.00;101748.94;5057299;28;20446;-73
2021/01/10 00:42:50;;;;;;;39.35;22.15;;;;;;;2.62;100.00;101746.53;5056344;28;20040;-73
2021/01/10 00:45:35;;;;;;;38.60;20.92;;;;;;;2.72;100.00;101751.16;5057011;28;20061;-74
2021/01/10 00:48:21;;;;;;;36.80;21.05;;;;;;;2.84;100.00;101730.81;5056724;28;20025;-74
2021/01/10 00:51:14;;;;;;;34.45;19.20;;;;;;;2.63;100.00;101733.66;5056685;28;20016;-73
2021/01/10 00:53:59;;;;;;;33.85;19.13;;;;;;;2.71;100.00;101739.94;5056856;28;20359;-73
2021/01/10 00:56:45;;;;;;;35.17;18.95;;;;;;;2.84;100.00;101728.22;5056527;28;20386;-73
2021/01/10 00:59:31;;;;;;;32.70;17.67;;;;;;;3.03;100.00;101717.59;5056662;28;20033;-73
2021/01/10 01:02:17;;;;;;;31.80;18.27;;;;;;;3.18;100.00;101710.25;5055618;28;20100;-74
2021/01/10 01:05:03;;;;;;;44.65;23.58;;;;;;;3.46;100.00;101738.66;5041980;28;20032;-73
2021/01/10 01:07:49;;;;;;;27.85;15.18;;;;;;;2.93;100.00;101737.13;5055775;28;20393;-73
2021/01/10 01:10:34;;;;;;;27.90;15.35;;;;;;;2.80;100.00;101734.13;5042153;28;20021;-74
2021/01/10 01:13:20;;;;;;;28.95;16.25;;;;;;;3.13;100.00;101729.97;5041616;28;20036;-73
2021/01/10 01:16:07;;;;;;;27.23;15.38;;;;;;;2.78;100.00;101731.50;5042245;28;20029;-74
2021/01/10 01:18:53;;;;;;;24.15;14.73;;;;;;;2.70;100.00;101724.38;5042233;28;20466;-74
2021/01/10 01:21:39;;;;;;;25.88;14.82;;;;;;;2.90;100.00;101738.78;5055776;28;20025;-73
2021/01/10 01:24:24;;;;;;;26.95;14.73;;;;;;;3.00;100.00;101738.19;5055872;28;20462;-74
2021/01/10 01:27:10;;;;;;;28.65;15.25;;;;;;;2.77;100.00;101722.00;5042051;28;20066;-73
2021/01/10 01:29:58;;;;;;;27.00;14.80;;;;;;;2.85;100.00;101717.91;5054346;28;20017;-74
2021/01/10 01:32:43;;;;;;;29.02;15.82;;;;;;;2.71;100.00;101724.41;5041575;28;20066;-74
2021/01/10 01:35:29;;;;;;;25.05;14.65;;;;;;;2.74;100.00;101718.44;5047851;28;20052;-73
2021/01/10 01:38:15;;;;;;;25.90;14.52;;;;;;;2.90;100.00;101715.47;5055371;28;20396;-74
2021/01/10 01:41:01;;;;;;;25.80;14.98;;;;;;;2.87;100.00;101715.38;5057136;28;20036;-73
2021/01/10 01:43:47;;;;;;;29.90;15.80;;;;;;;2.53;100.00;101715.22;5055097;28;20040;-73
2021/01/10 01:46:37;;;;;;;25.15;14.48;;;;;;;2.61;100.00;101712.03;5055641;28;20067;-74
2021/01/10 01:49:23;;;;;;;28.45;15.52;;;;;;;2.71;100.00;101716.66;5055271;28;20393;-74
2021/01/10 01:52:09;;;;;;;28.27;15.05;;;;;;;2.36;100.00;101719.88;5055027;28;20021;-73
2021/01/10 01:54:56;;;;;;;30.20;15.38;;;;;;;2.36;100.00;101724.16;5054408;28;20025;-73
2021/01/10 01:57:42;;;;;;;27.73;14.57;;;;;;;2.57;100.00;101724.84;5056037;28;20029;-74
2021/01/10 02:00:28;;;;;;;29.58;16.15;;;;;;;2.67;100.00;101727.75;5054111;28;20044;-74
2021/01/10 02:03:28;;;;;;;32.92;17.60;;;;;;;2.60;100.00;101717.13;5054388;28;20059;-73
2021/01/10 02:06:25;;;;;;;32.10;17.23;;;;;;;2.86;100.00;101721.41;5054884;28;20112;-73
2021/01/10 02:09:13;;;;;;;32.35;16.77;;;;;;;3.00;100.00;101733.91;5054111;28;20060;-73
2021/01/10 02:12:03;;;;;;;29.10;16.13;;;;;;;3.04;100.00;101727.97;5054668;28;20377;-73
2021/01/10 02:14:58;;;;;;;26.77;14.43;;;;;;;2.75;100.00;101728.84;5054723;28;20362;-73
2021/01/10 02:17:48;;;;;;;24.80;14.75;;;;;;;2.70;100.00;101727.81;5054602;28;20115;-74
2021/01/10 02:20:41;;;;;;;32.17;16.90;;;;;;;2.59;100.00;101724.03;5054703;28;20104;-73
2021/01/10 02:23:29;;;;;;;33.88;18.80;;;;;;;3.02;100.00;101724.47;5055115;28;20032;-72
2021/01/10 02:26:15;;;;;;;30.10;17.55;;;;;;;3.18;100.00;101720.63;5054367;28;20033;-72
2021/01/10 02:29:01;;;;;;;27.80;15.23;;;;;;;3.09;100.00;101717.78;5055095;28;20469;-73
2021/01/10 02:31:50;;;;;;;30.25;15.95;;;;;;;3.43;100.00;101723.94;5053697;28;20100;-72
2021/01/10 02:34:36;;;;;;;28.45;15.88;;;;;;;3.34;100.00;101717.63;5053398;28;20410;-73
2021/01/10 02:37:48;;;;;;;30.55;16.23;;;;;;;3.48;100.00;101718.84;5054217;28;20029;-74
2021/01/10 02:40:38;;;;;;;29.05;16.35;;;;;;;3.13;100.00;101709.25;5054489;28;20028;-73
2021/01/10 02:43:27;;;;;;;28.75;16.20;;;;;;;3.21;100.00;101710.31;5054010;28;20466;-73
2021/01/10 02:46:13;;;;;;;31.13;17.77;;;;;;;3.30;100.00;101720.94;5054843;28;20090;-73
2021/01/10 02:49:00;;;;;;;28.55;16.63;;;;;;;3.13;100.00;101724.78;5053981;28;20032;-74
2021/01/10 02:51:47;;;;;;;31.08;17.85;;;;;;;3.69;100.00;101735.84;5054107;28;20028;-73
2021/01/10 02:54:33;;;;;;;31.83;18.05;;;;;;;3.28;100.00;101736.44;5054455;28;20043;-72
2021/01/10 02:57:36;;;;;;;26.55;16.23;;;;;;;3.31;100.00;101726.19;5054313;28;20033;-73
2021/01/10 03:00:25;;;;;;;31.80;18.73;;;;;;;3.63;100.00;101733.09;5054543;28;20181;-72
2021/01/10 03:03:13;;;;;;;27.42;17.33;;;;;;;3.57;100.00;101732.03;5053974;28;20025;-73
2021/01/10 03:06:00;;;;;;;28.30;17.05;;;;;;;3.77;100.00;101717.88;5054018;28;20025;-74
2021/01/10 03:08:47;;;;;;;30.85;18.00;;;;;;;3.04;100.00;101712.44;5053811;28;20025;-73
2021/01/10 03:11:33;;;;;;;30.92;17.80;;;;;;;2.61;100.00;101706.00;5054688;28;20103;-73
2021/01/10 03:14:20;;;;;;;31.88;18.67;;;;;;;2.60;100.00;101694.75;5054234;28;20029;-73
2021/01/10 03:17:08;;;;;;;29.55;18.45;;;;;;;2.12;100.00;101708.75;5054524;28;20028;-73
2021/01/10 03:19:54;;;;;;;30.08;17.73;;;;;;;2.36;100.00;101706.94;5057197;28;20048;-72
2021/01/10 03:22:40;;;;;;;30.55;17.85;;;;;;;2.56;100.00;101715.28;5057901;28;20466;-73
2021/01/10 03:25:26;;;;;;;28.52;17.33;;;;;;;2.39;100.00;101717.38;5044225;28;20118;-72
2021/01/10 03:28:12;;;;;;;30.33;17.50;;;;;;;2.60;100.00;101724.91;5058530;28;20029;-73
2021/01/10 03:30:58;;;;;;;32.90;18.25;;;;;;;2.50;100.00;101736.72;5057738;28;20451;-73
2021/01/10 03:33:46;;;;;;;32.22;18.40;;;;;;;2.61;100.00;101739.63;5043939;28;20024;-73
2021/01/10 03:36:32;;;;;;;36.45;19.58;;;;;;;2.90;100.00;101731.00;5056040;28;20080;-73
2021/01/10 03:39:18;;;;;;;35.85;20.65;;;;;;;3.06;100.00;101736.66;5056626;28;20024;-73
2021/01/10 03:42:04;;;;;;;34.92;19.92;;;;;;;3.16;100.00;101732.63;5056183;28;20029;-73
2021/01/10 03:44:50;;;;;;;31.75;19.83;;;;;;;3.50;100.00;101712.00;5041518;28;20040;-73
2021/01/10 03:47:36;;;;;;;37.65;22.55;;;;;;;3.49;100.00;101724.06;5055837;28;20499;-73
2021/01/10 03:50:22;;;;;;;32.00;19.95;;;;;;;3.26;100.00;101734.66;5057012;28;20455;-72
2021/01/10 03:53:07;;;;;;;38.95;20.83;;;;;;;3.37;100.00;101740.97;5056743;28;20021;-73
2021/01/10 03:55:53;;;;;;;36.55;20.48;;;;;;;3.28;100.00;101743.31;5055744;28;20348;-73
2021/01/10 03:58:39;;;;;;;35.60;19.85;;;;;;;3.29;100.00;101737.31;5057181;28;20398;-73
2021/01/10 04:01:25;;;;;;;35.40;20.40;;;;;;;3.41;100.00;101733.34;5055753;28;20458;-73
2021/01/10 04:04:10;;;;;;;35.17;20.05;;;;;;;3.34;100.00;101721.06;5056191;28;20025;-73
2021/01/10 04:06:56;;;;;;;31.88;18.30;;;;;;;3.63;100.00;101740.88;5055661;28;20060;-73
2021/01/10 04:09:42;;;;;;;30.75;17.45;;;;;;;3.87;100.00;101749.25;5055943;28;20459;-73
2021/01/10 04:12:27;;;;;;;31.48;18.00;;;;;;;3.62;100.00;101740.84;5057086;28;20037;-73
2021/01/10 04:15:13;;;;;;;34.35;19.33;;;;;;;3.69;100.00;101743.63;5055742;28;20029;-73
2021/01/10 04:17:59;;;;;;;39.80;20.20;;;;;;;3.64;100.00;101742.63;5056535;28;20031;-73
2021/01/10 04:20:45;;;;;;;37.28;20.80;;;;;;;3.47;100.00;101728.34;5055466;28;20033;-73
2021/01/10 04:23:31;;;;;;;33.58;18.65;;;;;;;3.18;100.00;101729.25;5056165;28;20033;-73
2021/01/10 04:26:16;;;;;;;39.03;22.02;;;;;;;3.16;100.00;101730.03;5054212;28;20028;-73
2021/01/10 04:29:02;;;;;;;36.95;21.20;;;;;;;3.61;100.00;101736.47;5055174;28;20055;-73
2021/01/10 04:31:49;;;;;;;36.40;21.42;;;;;;;3.66;100.00;101747.84;5056477;28;20044;-73
2021/01/10 04:34:35;;;;;;;40.05;22.33;;;;;;;3.11;100.00;101748.03;5033617;28;637319;-73
2021/01/10 04:37:21;;;;;;;41.15;22.42;;;;;;;3.22;100.00;101762.16;5056480;28;20037;-73
2021/01/10 04:40:07;;;;;;;35.63;20.27;;;;;;;2.88;100.00;101754.25;5057108;28;20044;-74
2021/01/10 04:42:54;;;;;;;35.15;19.80;;;;;;;2.95;100.00;101751.03;5056208;28;20410;-73
2021/01/10 04:45:40;;;;;;;39.95;22.75;;;;;;;3.24;100.00;101741.47;5043277;28;20500;-73
2021/01/10 04:48:26;;;;;;;33.47;19.67;;;;;;;3.22;100.00;101763.88;5043244;28;20021;-72
2021/01/10 04:51:14;;;;;;;33.88;19.77;;;;;;;2.99;100.00;101783.03;5041584;28;20025;-73
2021/01/10 04:54:02;;;;;;;38.40;22.08;;;;;;;3.23;100.00;101789.81;5056564;28;20451;-73
2021/01/10 04:56:51;;;;;;;34.30;19.42;;;;;;;3.23;100.00;101763.03;5042014;28;20029;-72
2021/01/10 04:59:40;;;;;;;37.97;21.80;;;;;;;3.29;100.00;101753.72;5041925;28;20083;-73
2021/01/10 05:02:31;;;;;;;31.60;19.58;;;;;;;3.12;100.00;101744.63;5042202;28;20033;-74
2021/01/10 05:05:18;;;;;;;38.92;22.10;;;;;;;3.39;100.00;101747.09;5056311;28;20052;-74
2021/01/10 05:08:08;;;;;;;40.22;22.30;;;;;;;3.61;100.00;101760.69;5055777;28;20108;-73
2021/01/10 05:10:54;;;;;;;41.70;22.33;;;;;;;3.46;100.00;101768.03;5056168;28;20031;-73
2021/01/10 05:13:40;;;;;;;37.90;19.70;;;;;;;3.18;100.00;101765.47;5041616;28;20032;-73
2021/01/10 05:16:32;;;;;;;43.30;23.23;;;;;;;3.34;100.00;101778.03;5041826;28;20032;-73
2021/01/10 05:19:21;;;;;;;37.08;21.40;;;;;;;3.49;100.00;101787.94;5042106;28;20064;-74
2021/01/10 05:22:08;;;;;;;37.53;20.65;;;;;;;3.33;100.00;101799.59;5042612;28;20021;-72
2021/01/10 05:25:11;;;;;;;37.05;20.63;;;;;;;2.90;100.00;101796.56;5056017;28;20082;-73
2021/01/10 05:27:57;;;;;;;39.75;21.30;;;;;;;2.90;100.00;101791.38;5056173;28;20032;-73
2021/01/10 05:30:43;;;;;;;36.08;20.60;;;;;;;3.23;100.00;101789.81;5055415;28;20036;-73
2021/01/10 05:33:28;;;;;;;38.10;21.02;;;;;;;3.06;100.00;101793.59;5041733;28;20021;-74
2021/01/10 05:36:26;;;;;;;42.28;21.38;;;;;;;2.91;100.00;101793.16;5055228;28;20049;-74
2021/01/10 05:39:21;;;;;;;37.63;20.88;;;;;;;2.75;100.00;101787.47;5041586;28;20039;-73
2021/01/10 05:42:07;;;;;;;37.88;19.77;;;;;;;2.85;100.00;101781.75;5054526;28;20032;-72
2021/01/10 05:44:53;;;;;;;41.03;21.75;;;;;;;2.69;100.00;101788.16;5055073;28;20049;-72
2021/01/10 05:47:39;;;;;;;42.90;22.65;;;;;;;2.62;100.00;101801.72;5042083;28;20112;-73
2021/01/10 05:50:25;;;;;;;43.88;23.10;;;;;;;2.42;100.00;101795.06;5054734;28;20425;-73
2021/01/10 05:53:15;;;;;;;51.92;26.58;;;;;;;2.33;100.00;101804.22;5041081;28;20090;-72
2021/01/10 05:56:02;;;;;;;53.08;27.90;;;;;;;2.37;100.00;101793.16;5054767;28;20017;-74
2021/01/10 05:58:56;;;;;;;55.08;28.15;;;;;;;2.58;100.00;101794.69;5055243;28;20028;-73
2021/01/10 06:01:54;;;;;;;61.78;31.38;;;;;;;2.92;100.00;101812.16;5054612;28;20359;-73
2021/01/10 06:04:40;;;;;;;55.13;27.85;;;;;;;2.60;100.00;101799.91;5055137;28;20025;-73
2021/01/10 06:07:32;;;;;;;53.30;28.15;;;;;;;2.62;100.00;101799.13;5041180;28;20115;-73
2021/01/10 06:10:28;;;;;;;52.90;27.88;;;;;;;2.42;100.00;101820.94;5041305;28;20037;-73
2021/01/10 06:13:14;;;;;;;52.03;27.70;;;;;;;2.62;100.00;101821.56;5054623;28;20025;-72
2021/01/10 06:16:05;;;;;;;50.42;27.17;;;;;;;3.01;100.00;101821.06;5054915;28;20025;-72
2021/01/10 06:18:53;;;;;;;51.40;26.85;;;;;;;2.85;100.00;101823.16;5054314;28;20047;-72
2021/01/10 06:21:46;;;;;;;50.70;26.38;;;;;;;2.92;100.00;101812.16;5055132;28;20025;-72
2021/01/10 06:24:35;;;;;;;52.58;26.75;;;;;;;3.31;100.00;101816.81;5054831;28;20025;-72
2021/01/10 06:27:25;;;;;;;48.20;25.15;;;;;;;3.05;100.00;101819.47;5055056;28;20024;-72
2021/01/10 06:30:16;;;;;;;50.70;27.30;;;;;;;2.94;100.00;101810.50;5054872;28;20029;-73
2021/01/10 06:33:12;;;;;;;49.38;25.75;;;;;;;3.14;100.00;101820.59;5054242;28;20090;-72
2021/01/10 06:36:05;;;;;;;49.58;26.80;;;;;;;3.36;100.00;101830.78;5054322;28;20493;-73
2021/01/10 06:39:20;;;;;;;54.33;28.17;;;;;;;3.29;100.00;101840.88;5054121;28;20075;-72
2021/01/10 06:42:08;;;;;;;49.63;27.33;;;;;;;3.25;100.00;101837.34;5053567;28;20371;-72
2021/01/10 06:44:58;;;;;;;48.83;26.65;;;;;;;3.02;100.00;101827.13;5054021;28;20125;-73
2021/01/10 06:47:52;;;;;;;49.70;26.33;;;;;;;2.66;100.00;101828.59;5041023;28;20109;-73
2021/01/10 06:50:45;;;;;;;51.25;27.70;;;;;;;3.16;100.00;101828.41;5053772;28;20028;-73
2021/01/10 06:53:30;;;;;;;52.72;28.33;;;;;;;2.69;100.00;101824.38;5055093;28;20027;-73
2021/01/10 06:56:17;;;;;;;55.70;28.35;;;;;;;2.93;100.00;101822.56;5039800;28;20040;-73
2021/01/10 06:59:09;;;;;;;54.70;29.23;;;;;;;2.94;100.00;101828.63;5054086;28;20024;-72
2021/01/10 07:01:56;;;;;;;54.00;28.35;;;;;;;3.11;100.00;101849.00;5053555;28;20108;-73
2021/01/10 07:04:56;;;;;;;52.38;28.83;;;;;;;3.05;100.00;101854.00;5054097;28;20033;-73
2021/01/10 07:07:42;;;;;;;52.85;28.45;;;;;;;3.07;100.00;101854.03;5040384;28;20033;-72
2021/01/10 07:10:27;;;;;;;54.47;28.40;;;;;;;3.02;100.00;101851.28;5040099;28;20457;-73
2021/01/10 07:13:27;;;;;;;58.30;30.23;;;;;;;3.09;100.00;101852.41;5053548;28;20109;-73
2021/01/10 07:16:17;;;;;;;52.47;26.73;;;;;;;3.24;100.00;101864.09;5054981;28;20048;-72
2021/01/10 07:19:06;;;;;;;49.60;26.02;;;;;;;3.20;100.00;101867.41;5053778;28;20044;-72
2021/01/10 07:21:52;;;;;;;46.63;24.77;;;;;;;3.23;100.00;101872.69;5039741;28;20033;-73
2021/01/10 07:24:38;;;;;;;48.80;26.20;;;;;;;3.14;100.00;101871.53;5054747;28;20362;-73
2021/01/10 07:27:34;;;;;;;42.10;23.73;;;;;;;3.12;100.00;101868.88;5054051;28;20031;-74
2021/01/10 07:30:22;;;;;;;52.25;26.45;;;;;;;3.29;100.00;101865.09;5053928;28;20044;-73
2021/01/10 07:33:24;;;;;;;43.60;24.20;;;;;;;3.26;100.00;101849.44;5054889;28;20024;-75
2021/01/10 07:36:11;;;;;;;43.55;23.77;;;;;;;3.14;100.00;101832.69;5053687;28;20103;-73
2021/01/10 07:39:06;;;;;;;45.47;25.35;;;;;;;3.42;100.00;101835.25;5053417;28;20048;-74
2021/01/10 07:41:53;;;;;;;46.67;24.80;;;;;;;3.56;100.00;101844.28;5054574;28;20037;-74
2021/01/10 07:44:48;;;;;;;43.75;24.13;;;;;;;3.64;100.00;101854.06;5053983;28;20033;-74
2021/01/10 07:47:33;;;;;;;40.20;22.67;;;;;;;3.31;100.00;101845.31;5054080;28;20030;-74
2021/01/10 07:50:23;;;;;;;44.17;26.13;;;;;;;3.73;100.00;101854.31;5052847;28;20033;-74
2021/01/10 07:53:09;;;;;;;45.50;26.05;;;;;;;3.48;100.00;101856.16;5054298;28;20040;-73
2021/01/10 07:56:14;;;;;;;52.60;28.17;;;;;;;3.24;100.00;101858.00;5054396;28;20359;-74
2021/01/10 07:59:16;;;;;;;51.75;28.15;;;;;;;3.72;100.00;101854.25;5054446;28;20029;-73
2021/01/10 08:02:02;;;;;;;48.17;27.00;;;;;;;4.06;100.00;101864.72;5053070;28;20132;-73
2021/01/10 08:04:51;;;;;;;44.17;24.25;;;;;;;3.45;100.00;101861.22;5054323;28;20043;-73
2021/01/10 08:07:50;;;;;;;38.15;22.65;;;;;;;3.80;100.00;101851.06;5056947;28;20035;-73
2021/01/10 08:10:48;;;;;;;36.22;21.45;;;;;;;3.36;100.00;101851.50;5043476;28;20438;-74
2021/01/10 08:13:35;;;;;;;36.47;21.65;;;;;;;3.40;100.00;101849.88;5056620;28;20083;-72
2021/01/10 08:16:23;;;;;;;36.78;21.05;;;;;;;3.42;100.00;101843.88;5057472;28;20082;-73
2021/01/10 08:19:09;;;;;;;38.75;21.73;;;;;;;3.11;100.00;101845.53;5056737;28;20017;-73
2021/01/10 08:22:01;;;;;;;41.28;24.15;;;;;;;3.15;100.00;101850.88;5057902;28;20086;-73
2021/01/10 08:24:47;;;;;;;41.72;24.27;;;;;;;3.63;100.00;101856.59;5056492;28;20052;-74
2021/01/10 08:27:33;;;;;;;41.70;23.90;;;;;;;4.10;100.00;101859.66;5056830;28;20486;-74
2021/01/10 08:30:20;;;;;;;39.17;21.65;;;;;;;3.85;100.00;101861.53;5057394;28;20366;-73
2021/01/10 08:33:06;;;;;;;36.80;22.38;;;;;;;3.74;100.00;101860.38;5043067;28;20039;-75
2021/01/10 08:35:52;;;;;;;35.05;20.80;;;;;;;3.74;100.00;101857.78;5056574;28;20056;-74
2021/01/10 08:38:54;;;;;;;34.05;20.58;;;;;;;3.81;100.00;101860.56;5056352;28;20447;-74
2021/01/10 08:41:42;;;;;;;36.15;22.08;;;;;;;4.22;100.00;101865.16;5056263;28;20432;-74
2021/01/10 08:44:28;;;;;;;34.78;20.73;;;;;;;3.97;100.00;101842.00;5055831;28;20025;-74
2021/01/10 08:47:14;;;;;;;41.78;22.80;;;;;;;3.83;100.00;101839.88;5057263;28;20128;-74
2021/01/10 08:50:00;;;;;;;31.52;19.77;;;;;;;3.96;100.00;101840.25;5056694;28;20471;-73
2021/01/10 08:52:52;;;;;;;39.45;22.95;;;;;;;4.43;100.00;101834.56;5056775;28;20043;-73
2021/01/10 08:55:42;;;;;;;38.80;22.15;;;;;;;3.91;100.00;101848.75;5056699;28;20029;-76
2021/01/10 08:58:28;;;;;;;37.28;22.38;;;;;;;3.98;100.00;101869.69;5056643;28;20029;-73
2021/01/10 09:01:25;;;;;;;32.40;19.90;;;;;;;3.93;100.00;101871.28;5055632;28;20036;-74
2021/01/10 09:04:12;;;;;;;36.03;21.77;;;;;;;3.87;100.00;101871.09;5056498;28;20466;-75
2021/01/10 09:07:01;;;;;;;36.65;21.13;;;;;;;3.87;100.00;101849.50;5056455;28;20037;-74
2021/01/10 09:09:59;;;;;;;31.13;20.25;;;;;;;3.94;100.00;101847.09;5041802;28;20040;-73
2021/01/10 09:12:53;;;;;;;32.00;19.75;;;;;;;4.45;100.00;101845.88;5056172;28;20090;-74
2021/01/10 09:15:43;;;;;;;35.95;22.38;;;;;;;4.33;100.00;101849.88;5056680;28;20024;-73
2021/01/10 09:18:33;;;;;;;35.97;21.77;;;;;;;4.01;100.00;101843.84;5041912;28;20512;-74
2021/01/10 09:21:25;;;;;;;34.60;22.23;;;;;;;4.05;100.00;101856.06;5055626;28;20167;-74
2021/01/10 09:24:12;;;;;;;34.63;21.40;;;;;;;4.46;100.00;101854.56;5055761;28;20083;-74
2021/01/10 09:27:11;;;;;;;36.10;22.80;;;;;;;4.61;100.00;101868.78;5055500;28;20039;-75
2021/01/10 09:30:06;;;;;;;37.58;21.77;;;;;;;4.34;100.00;101868.06;5055544;28;20033;-74
2021/01/10 09:32:53;;;;;;;38.03;24.05;;;;;;;4.21;100.00;101858.22;5056030;28;20028;-74
2021/01/10 09:35:47;;;;;;;34.45;21.10;;;;;;;4.11;100.00;101840.66;5046654;28;20053;-75
2021/01/10 09:38:33;;;;;;;35.90;21.30;;;;;;;4.36;100.00;101835.28;5055176;28;20037;-74
2021/01/10 09:41:19;;;;;;;34.40;21.63;;;;;;;4.39;100.00;101824.09;5054939;28;20098;-74
2021/01/10 09:44:05;;;;;;;32.58;21.10;;;;;;;4.36;100.00;101822.31;5055577;28;20482;-74
2021/01/10 09:46:53;;;;;;;34.63;22.13;;;;;;;4.43;100.00;101811.22;5056532;28;20344;-74
2021/01/10 09:49:43;;;;;;;31.10;19.40;;;;;;;4.02;100.00;101811.88;5055646;28;20537;-74
2021/01/10 09:52:29;;;;;;;29.15;18.58;;;;;;;3.81;100.00;101813.91;5055161;28;20162;-74
2021/01/10 09:55:16;;;;;;;30.95;20.23;;;;;;;4.37;100.00;101824.06;5055078;28;20344;-73
2021/01/10 09:58:13;;;;;;;32.08;21.20;;;;;;;4.42;100.00;101831.97;5055276;28;20025;-73
2021/01/10 10:01:00;;;;;;;31.35;21.30;;;;;;;4.68;100.00;101843.84;5054677;28;20417;-74
2021/01/10 10:03:49;;;;;;;28.00;17.98;;;;;;;4.36;100.00;101835.28;5056754;28;20078;-75
2021/01/10 10:06:51;;;;;;;29.75;19.95;;;;;;;4.84;100.00;101830.38;5055285;28;20033;-74
2021/01/10 10:10:05;;;;;;;28.13;17.52;;;;;;;4.41;100.00;101818.09;5055386;28;20032;-74
2021/01/10 10:12:58;;;;;;;30.23;20.08;;;;;;;4.66;100.00;101817.84;5055126;28;20062;-74
2021/01/10 10:15:51;;;;;;;41.10;25.75;;;;;;;4.88;100.00;101811.44;5054966;28;20033;-74
2021/01/10 10:18:42;;;;;;;31.50;19.85;;;;;;;5.04;100.00;101805.75;5054790;28;20028;-73
2021/01/10 10:21:28;;;;;;;26.60;16.95;;;;;;;4.43;100.00;101792.19;5053311;28;20033;-75
2021/01/10 10:24:15;;;;;;;28.58;17.83;;;;;;;4.75;100.00;101783.44;5054890;28;20122;-73
2021/01/10 10:27:01;;;;;;;28.75;18.85;;;;;;;4.99;100.00;101797.00;5053241;28;20025;-75
2021/01/10 10:29:47;;;;;;;26.63;17.73;;;;;;;5.22;100.00;101806.13;5054640;28;20021;-74
2021/01/10 10:32:33;;;;;;;32.10;20.98;;;;;;;5.23;100.00;101795.78;5054269;28;20087;-76
2021/01/10 10:35:19;;;;;;;34.00;21.77;;;;;;;5.04;100.00;101784.97;5053630;28;20057;-74
2021/01/10 10:38:05;;;;;;;32.95;21.08;;;;;;;4.71;100.00;101790.28;5054603;28;20071;-76
2021/01/10 10:40:52;;;;;;;32.97;21.25;;;;;;;5.18;100.00;101778.34;5055966;28;20033;-76
2021/01/10 10:43:38;;;;;;;28.17;18.63;;;;;;;4.57;100.00;101775.22;5053408;28;20024;-75
2021/01/10 10:46:24;;;;;;;28.77;18.25;;;;;;;4.50;100.00;101758.63;5054685;28;20025;-74
2021/01/10 10:49:10;;;;;;;31.60;19.83;;;;;;;4.47;100.00;101749.91;5053804;28;20037;-75
2021/01/10 10:51:56;;;;;;;35.65;21.80;;;;;;;4.66;100.00;101741.69;5054035;28;20086;-74
2021/01/10 10:54:42;;;;;;;29.88;18.60;;;;;;;4.73;100.00;101728.91;5053895;28;20029;-75
2021/01/10 10:57:27;;;;;;;34.65;21.65;;;;;;;4.73;100.00;101721.13;5054712;28;20517;-75
2021/01/10 11:00:14;;;;;;;35.13;20.90;;;;;;;5.23;100.00;101729.97;5053399;28;20041;-74
2021/01/10 11:03:00;;;;;;;32.33;20.40;;;;;;;5.36;100.00;101727.63;5054837;28;20021;-75
2021/01/10 11:05:46;;;;;;;38.30;22.42;;;;;;;5.05;100.00;101719.19;5053802;28;20048;-75
2021/01/10 11:08:31;;;;;;;34.45;20.88;;;;;;;5.34;100.00;101710.25;5053082;28;20367;-75
2021/01/10 11:11:17;;;;;;;52.55;28.20;;;;;;;5.34;100.00;101710.25;5053454;28;20048;-75
2021/01/10 11:14:06;;;;;;;38.60;21.27;;;;;;;4.94;100.00;101718.09;5054776;28;20065;-75
2021/01/10 11:16:53;;;;;;;38.35;21.77;;;;;;;5.06;100.00;101715.75;5053719;28;20040;-74
2021/01/10 11:19:38;;;;;;;40.50;22.20;;;;;;;4.75;100.00;101708.19;5052907;28;20063;-75
2021/01/10 11:22:28;;;;;;;34.45;19.40;;;;;;;4.90;100.00;101709.38;5054152;28;20082;-74
2021/01/10 11:25:13;;;;;;;28.13;18.25;;;;;;;4.99;100.00;101719.94;5053286;28;20124;-76
2021/01/10 11:27:59;;;;;;;34.40;19.60;;;;;;;4.87;100.00;101722.28;5053095;28;20025;-74
2021/01/10 11:30:45;;;;;;;30.30;19.23;;;;;;;5.25;100.00;101731.75;5053127;28;20040;-75
2021/01/10 11:33:31;;;;;;;62.13;32.20;;;;;;;4.97;100.00;101728.53;5054851;28;20021;-75
2021/01/10 11:36:18;;;;;;;58.42;27.98;;;;;;;4.66;100.00;101732.19;5052840;28;20123;-75
2021/01/10 11:39:04;;;;;;;44.05;22.67;;;;;;;4.65;100.00;101726.97;5054684;28;20446;-75
2021/01/10 11:41:52;;;;;;;42.97;22.27;;;;;;;4.71;100.00;101727.13;5058297;28;20379;-75
2021/01/10 11:44:38;;;;;;;34.13;19.27;;;;;;;5.02;100.00;101732.09;5057304;28;20056;-75
2021/01/10 11:47:26;;;;;;;30.63;18.88;;;;;;;5.04;100.00;101726.13;5058011;28;20103;-76
2021/01/10 11:50:12;;;;;;;25.90;16.60;;;;;;;5.02;100.00;101719.13;5058205;28;20021;-75
2021/01/10 11:52:58;;;;;;;28.23;17.88;;;;;;;5.17;100.00;101715.13;5057211;28;20390;-75
2021/01/10 11:55:44;;;;;;;23.00;15.77;;;;;;;4.88;100.00;101710.19;5057033;28;20398;-74
2021/01/10 11:58:30;;;;;;;25.88;17.38;;;;;;;4.62;100.00;101706.13;5043774;28;20029;-75
2021/01/10 12:01:16;;;;;;;24.75;16.55;;;;;;;4.55;100.00;101712.06;5056761;28;20020;-74
2021/01/10 12:04:03;;;;;;;30.90;18.85;;;;;;;5.05;100.00;101701.91;5057901;28;20043;-76
2021/01/10 12:06:49;;;;;;;26.88;17.08;;;;;;;5.20;100.00;101689.19;5057268;28;20029;-77
2021/01/10 12:09:35;;;;;;;25.40;17.00;;;;;;;5.34;100.00;101687.75;5043532;28;20024;-75
2021/01/10 12:12:20;;;;;;;28.40;16.77;;;;;;;4.70;100.00;101683.81;5043207;28;20352;-75
2021/01/10 12:15:07;;;;;;;31.77;19.35;;;;;;;4.99;100.00;101683.59;5056859;28;20025;-75
2021/01/10 12:17:52;;;;;;;26.50;17.35;;;;;;;4.99;100.00;101678.38;5043302;28;20128;-75
2021/01/10 12:20:38;;;;;;;25.65;16.80;;;;;;;4.91;100.00;101692.94;5042040;28;20062;-74
2021/01/10 12:23:24;;;;;;;28.65;18.48;;;;;;;4.91;100.00;101694.69;5056645;28;20447;-75
2021/01/10 12:26:12;;;;;;;24.75;16.25;;;;;;;5.23;100.00;101689.25;5057484;28;20029;-75
2021/01/10 12:28:57;;;;;;;24.85;16.25;;;;;;;5.13;100.00;101671.75;5058447;28;20340;-74
2021/01/10 12:31:43;;;;;;;27.85;17.52;;;;;;;5.53;100.00;101673.38;5056788;28;20104;-74
2021/01/10 12:34:29;;;;;;;32.65;21.25;;;;;;;5.36;100.00;101680.84;5057614;28;20405;-76
2021/01/10 12:37:19;;;;;;;30.25;18.95;;;;;;;5.28;100.00;101681.56;5042983;28;20040;-76
2021/01/10 12:40:06;;;;;;;28.55;18.17;;;;;;;4.95;100.00;101693.91;5057074;28;20040;-76
2021/01/10 12:42:52;;;;;;;32.28;20.98;;;;;;;5.32;100.00;101693.78;5043008;28;20150;-76
2021/01/10 12:45:38;;;;;;;34.70;21.58;;;;;;;5.33;100.00;101683.41;5043047;28;20120;-75